createdAt,value
2022-11-16T00:01:06.971Z,90.93
2022-11-16T00:03:34.403Z,90.76
2022-11-16T00:06:03.959Z,91.22
2022-11-16T00:08:33.409Z,90.96
2022-11-16T00:11:09.267Z,91.00
2022-11-16T00:13:37.854Z,90.85
2022-11-16T00:16:06.191Z,91.31
2022-11-16T00:18:34.338Z,91.10
2022-11-16T00:21:04.191Z,91.14
2022-11-16T00:23:30.980Z,91.19
2022-11-16T00:26:06.266Z,91.18
2022-11-16T00:28:33.311Z,91.21
2022-11-16T00:31:02.412Z,91.38
2022-11-16T00:33:29.835Z,91.04
2022-11-16T00:35:57.160Z,91.30
2022-11-16T00:38:24.061Z,91.29
2022-11-16T00:40:50.943Z,91.27
2022-11-16T00:43:17.599Z,91.16
2022-11-16T00:45:44.833Z,91.33
2022-11-16T00:48:13.028Z,91.55
2022-11-16T00:50:39.772Z,91.44
2022-11-16T00:53:07.373Z,91.46
2022-11-16T00:55:34.491Z,91.53
2022-11-16T00:58:01.142Z,91.52
2022-11-16T01:00:27.806Z,91.43
2022-11-16T01:02:54.718Z,91.27
2022-11-16T01:05:22.505Z,91.56
2022-11-16T01:07:50.368Z,91.73
2022-11-16T01:10:20.885Z,91.46
2022-11-16T01:12:49.538Z,91.76
2022-11-16T01:15:19.110Z,91.63
2022-11-16T01:17:46.304Z,91.58
2022-11-16T01:20:16.350Z,91.56
2022-11-16T01:22:44.256Z,91.58
2022-11-16T01:25:12.686Z,91.78
2022-11-16T01:27:41.297Z,91.97
2022-11-16T01:30:11.151Z,92.00
2022-11-16T01:32:38.255Z,92.03
2022-11-16T01:35:06.558Z,92.05
2022-11-16T01:37:33.653Z,91.90
2022-11-16T01:40:00.508Z,92.27
2022-11-16T01:42:30.816Z,92.05
2022-11-16T01:45:00.134Z,91.85
2022-11-16T01:47:27.556Z,92.08
2022-11-16T01:50:09.854Z,91.93
2022-11-16T01:52:44.988Z,92.11
2022-11-16T01:55:12.706Z,92.10
2022-11-16T01:57:43.943Z,91.87
2022-11-16T02:00:13.276Z,91.92
2022-11-16T02:02:40.341Z,91.83
2022-11-16T02:05:09.292Z,91.64
2022-11-16T02:08:38.820Z,91.78
2022-11-16T02:11:36.217Z,91.89
2022-11-16T02:14:43.348Z,91.83
2022-11-16T02:17:32.285Z,91.60
2022-11-16T02:20:29.673Z,91.74
2022-11-16T02:23:36.775Z,91.73
2022-11-16T02:26:18.116Z,91.83
2022-11-16T02:29:09.406Z,91.86
2022-11-16T02:31:46.120Z,92.10
2022-11-16T02:34:17.174Z,92.05
2022-11-16T02:36:48.394Z,92.04
2022-11-16T02:39:22.203Z,92.03
2022-11-16T02:41:52.535Z,92.00
2022-11-16T02:44:26.574Z,92.10
2022-11-16T02:46:59.082Z,92.25
2022-11-16T02:49:31.022Z,92.10
2022-11-16T02:51:59.198Z,92.63
2022-11-16T02:54:25.888Z,92.15
2022-11-16T02:56:57.422Z,92.17
2022-11-16T02:59:42.598Z,92.44
2022-11-16T03:02:11.864Z,92.19
2022-11-16T03:04:48.490Z,92.13
2022-11-16T03:07:20.452Z,91.76
2022-11-16T03:09:51.317Z,92.33
2022-11-16T03:12:26.458Z,91.99
2022-11-16T03:15:01.429Z,92.15
2022-11-16T03:17:36.741Z,92.32
2022-11-16T03:20:09.554Z,92.29
2022-11-16T03:22:47.048Z,92.21
2022-11-16T03:25:19.980Z,92.04
2022-11-16T03:27:57.581Z,92.13
2022-11-16T03:30:27.569Z,92.07
2022-11-16T03:33:00.009Z,91.72
2022-11-16T03:35:35.223Z,92.08
2022-11-16T03:38:07.580Z,91.96
2022-11-16T03:40:37.504Z,92.21
2022-11-16T03:43:07.745Z,91.96
2022-11-16T03:45:37.699Z,92.07
2022-11-16T03:48:06.888Z,92.15
2022-11-16T03:50:33.799Z,91.98
2022-11-16T03:53:00.494Z,92.30
2022-11-16T03:55:27.193Z,92.32
2022-11-16T03:57:53.848Z,92.31
2022-11-16T04:00:20.710Z,92.33
2022-11-16T04:02:47.344Z,92.37
2022-11-16T04:05:32.602Z,92.35
2022-11-16T04:08:18.110Z,92.28
2022-11-16T04:11:03.604Z,91.86
2022-11-16T04:13:51.742Z,92.24
2022-11-16T04:16:37.805Z,92.38
2022-11-16T04:19:23.105Z,92.40
2022-11-16T04:22:15.419Z,92.25
2022-11-16T04:24:48.769Z,92.27
2022-11-16T04:27:35.824Z,92.30
2022-11-16T04:30:04.023Z,91.92
2022-11-16T04:32:49.744Z,92.26
2022-11-16T04:35:35.272Z,92.63
2022-11-16T04:38:02.031Z,92.23
2022-11-16T04:40:29.483Z,92.10
2022-11-16T04:42:57.575Z,92.15
2022-11-16T04:45:45.230Z,92.06
2022-11-16T04:48:13.588Z,91.98
2022-11-16T04:50:41.129Z,91.97
2022-11-16T04:53:08.816Z,92.13
2022-11-16T04:55:36.025Z,92.01
2022-11-16T04:58:03.842Z,92.08
2022-11-16T05:00:31.026Z,92.01
2022-11-16T05:03:01.286Z,92.10
2022-11-16T05:05:28.790Z,91.77
2022-11-16T05:07:55.691Z,91.94
2022-11-16T05:10:22.521Z,91.75
2022-11-16T05:12:49.356Z,92.05
2022-11-16T05:15:17.638Z,91.84
2022-11-16T05:17:44.335Z,91.32
2022-11-16T05:20:29.914Z,91.50
2022-11-16T05:22:58.494Z,91.22
2022-11-16T05:25:26.199Z,91.10
2022-11-16T05:27:53.693Z,91.42
2022-11-16T05:30:20.445Z,91.04
2022-11-16T05:32:47.305Z,90.70
2022-11-16T05:35:14.384Z,90.84
2022-11-16T05:37:41.192Z,90.38
2022-11-16T05:40:08.667Z,90.84
2022-11-16T05:42:35.291Z,91.01
2022-11-16T05:45:02.004Z,91.17
2022-11-16T05:47:28.660Z,90.97
2022-11-16T05:49:55.282Z,90.90
2022-11-16T05:52:22.131Z,90.94
2022-11-16T05:54:49.052Z,91.08
2022-11-16T05:57:15.898Z,91.53
2022-11-16T05:59:42.662Z,91.58
2022-11-16T06:02:09.796Z,91.89
2022-11-16T06:04:36.464Z,92.18
2022-11-16T06:07:03.325Z,92.51
2022-11-16T06:09:29.987Z,92.51
2022-11-16T06:11:56.662Z,92.90
2022-11-16T06:14:23.488Z,93.10
2022-11-16T06:16:50.131Z,92.94
2022-11-16T06:19:16.765Z,93.45
2022-11-16T06:21:43.636Z,93.50
2022-11-16T06:24:10.354Z,93.93
2022-11-16T06:26:37.511Z,93.83
2022-11-16T06:29:04.764Z,94.12
2022-11-16T06:31:31.771Z,94.25
2022-11-16T06:33:58.628Z,93.83
2022-11-16T06:36:25.273Z,93.93
2022-11-16T06:38:51.989Z,93.97
2022-11-16T06:41:19.357Z,93.97
2022-11-16T06:43:46.043Z,94.50
2022-11-16T06:46:12.692Z,94.72
2022-11-16T06:48:39.497Z,94.34
2022-11-16T06:51:06.307Z,94.61
2022-11-16T06:53:33.111Z,94.41
2022-11-16T06:56:05.575Z,94.28
2022-11-16T06:58:32.815Z,94.67
2022-11-16T07:01:11.259Z,94.91
2022-11-16T07:03:38.228Z,94.68
2022-11-16T07:06:14.578Z,94.37
2022-11-16T07:08:41.381Z,93.79
2022-11-16T07:11:11.121Z,93.25
2022-11-16T07:13:38.515Z,93.38
2022-11-16T07:16:07.707Z,93.55
2022-11-16T07:18:36.283Z,92.92
2022-11-16T07:21:15.679Z,93.43
2022-11-16T07:23:42.727Z,93.75
2022-11-16T07:26:10.350Z,92.80
2022-11-16T07:28:37.565Z,92.83
2022-11-16T07:31:13.093Z,93.10
2022-11-16T07:33:40.653Z,92.96
2022-11-16T07:36:12.691Z,92.54
2022-11-16T07:38:40.347Z,92.66
2022-11-16T07:41:10.383Z,92.67
2022-11-16T07:43:37.393Z,91.86
2022-11-16T07:48:57.713Z,91.41
2022-11-16T07:51:24.349Z,91.38
2022-11-16T07:53:58.077Z,91.03
2022-11-16T07:56:25.386Z,90.73
2022-11-16T07:58:52.433Z,90.33
2022-11-16T08:01:19.909Z,90.74
2022-11-16T08:03:46.995Z,90.46
2022-11-16T08:06:19.066Z,90.11
2022-11-16T08:08:45.910Z,90.20
2022-11-16T08:11:13.229Z,90.32
2022-11-16T08:13:41.944Z,89.88
2022-11-16T08:16:14.362Z,89.80
2022-11-16T08:18:42.137Z,89.87
2022-11-16T08:21:12.518Z,89.80
2022-11-16T08:23:44.839Z,89.62
2022-11-16T08:26:19.730Z,90.15
2022-11-16T08:28:48.321Z,89.17
2022-11-16T08:31:18.612Z,89.07
2022-11-16T08:33:45.306Z,89.22
2022-11-16T08:36:17.171Z,88.62
2022-11-16T08:38:45.829Z,88.52
2022-11-16T08:41:12.821Z,88.68
2022-11-16T08:43:40.383Z,88.08
2022-11-16T08:46:10.830Z,88.20
2022-11-16T08:48:38.338Z,87.86
2022-11-16T08:51:17.407Z,87.84
2022-11-16T08:53:47.989Z,87.44
2022-11-16T08:56:16.365Z,87.48
2022-11-16T08:58:44.228Z,87.16
2022-11-16T09:01:14.362Z,86.79
2022-11-16T09:03:41.889Z,87.07
2022-11-16T09:06:10.067Z,85.61
2022-11-16T09:08:39.773Z,85.62
2022-11-16T09:11:08.876Z,85.86
2022-11-16T09:13:35.554Z,86.19
2022-11-16T09:16:02.979Z,85.38
2022-11-16T09:18:30.519Z,85.72
2022-11-16T09:20:57.632Z,85.46
2022-11-16T09:23:25.721Z,85.22
2022-11-16T09:25:53.567Z,85.47
2022-11-16T09:28:21.747Z,84.07
2022-11-16T09:30:51.405Z,84.32
2022-11-16T09:33:18.624Z,84.38
2022-11-16T09:35:45.335Z,84.02
2022-11-16T09:38:17.535Z,83.90
2022-11-16T09:40:48.969Z,83.05
2022-11-16T09:43:46.165Z,82.69
2022-11-16T09:46:33.343Z,82.83
2022-11-16T09:49:04.952Z,82.96
2022-11-16T09:51:40.007Z,82.40
2022-11-16T09:54:16.657Z,81.86
2022-11-16T09:56:48.147Z,82.24
2022-11-16T09:59:24.806Z,81.86
2022-11-16T10:02:14.355Z,82.05
2022-11-16T10:04:58.937Z,81.05
2022-11-16T10:07:35.374Z,81.22
2022-11-16T10:10:02.132Z,81.61
2022-11-16T10:12:56.337Z,81.70
2022-11-16T10:15:51.832Z,81.58
2022-11-16T10:18:53.471Z,80.90
2022-11-16T10:21:26.055Z,80.74
2022-11-16T10:24:27.973Z,80.86
2022-11-16T10:27:12.557Z,80.53
2022-11-16T10:29:54.023Z,79.39
2022-11-16T10:32:35.739Z,79.28
2022-11-16T10:35:14.842Z,79.68
2022-11-16T10:37:48.698Z,80.06
2022-11-16T10:40:17.886Z,79.71
2022-11-16T10:42:54.796Z,79.45
2022-11-16T10:45:57.911Z,79.52
2022-11-16T10:49:08.843Z,78.95
2022-11-16T10:51:35.738Z,78.90
2022-11-16T10:54:03.120Z,79.08
2022-11-16T10:56:40.382Z,78.99
2022-11-16T10:59:09.953Z,78.53
2022-11-16T11:01:43.565Z,78.79
2022-11-16T11:04:22.598Z,77.53
2022-11-16T11:06:52.828Z,77.70
2022-11-16T11:09:28.876Z,78.05
2022-11-16T11:12:17.272Z,77.60
2022-11-16T11:15:11.772Z,75.86
2022-11-16T11:17:41.357Z,76.14
2022-11-16T11:20:22.344Z,75.70
2022-11-16T11:23:04.553Z,76.21
2022-11-16T11:25:35.706Z,75.49
2022-11-16T11:28:20.001Z,75.84
2022-11-16T11:31:01.819Z,75.10
2022-11-16T11:33:34.811Z,75.96
2022-11-16T11:36:18.469Z,74.92
2022-11-16T11:39:01.591Z,74.68
2022-11-16T11:41:34.520Z,73.58
2022-11-16T11:44:05.040Z,74.14
2022-11-16T11:47:23.678Z,74.06
2022-11-16T11:49:38.274Z,74.17
2022-11-16T11:52:21.709Z,74.02
2022-11-16T11:54:52.323Z,74.13
2022-11-16T11:57:23.843Z,74.21
2022-11-16T11:59:54.213Z,74.69
2022-11-16T12:02:37.222Z,74.06
2022-11-16T12:05:34.857Z,73.37
2022-11-16T12:08:34.246Z,73.22
2022-11-16T12:11:20.011Z,73.77
2022-11-16T12:14:01.192Z,74.37
2022-11-16T12:17:09.835Z,74.07
2022-11-16T12:19:57.269Z,74.37
2022-11-16T12:22:36.717Z,73.66
2022-11-16T12:25:18.401Z,73.75
2022-11-16T12:28:11.670Z,73.18
2022-11-16T12:31:23.697Z,72.31
2022-11-16T12:34:26.719Z,71.65
2022-11-16T12:37:15.117Z,71.57
2022-11-16T12:40:00.266Z,69.89
2022-11-16T12:42:48.844Z,70.09
2022-11-16T12:46:06.287Z,70.55
2022-11-16T12:49:09.115Z,70.60
2022-11-16T12:51:58.915Z,71.43
2022-11-16T12:55:26.430Z,70.99
2022-11-16T12:58:18.631Z,71.98
2022-11-16T13:01:14.035Z,71.45
2022-11-16T13:03:56.156Z,71.40
2022-11-16T13:06:31.869Z,72.00
2022-11-16T13:09:11.030Z,72.87
2022-11-16T13:11:49.272Z,73.21
2022-11-16T13:14:26.410Z,73.74
2022-11-16T13:16:54.335Z,71.79
2022-11-16T13:19:21.629Z,71.79
2022-11-16T13:22:14.034Z,71.94
2022-11-16T13:24:46.791Z,71.80
2022-11-16T13:27:37.160Z,71.29
2022-11-16T13:30:13.391Z,72.40
2022-11-16T13:33:10.811Z,72.48
2022-11-16T13:35:38.857Z,72.49
2022-11-16T13:38:13.148Z,71.72
2022-11-16T13:40:41.368Z,71.24
2022-11-16T13:43:10.858Z,71.51
2022-11-16T13:46:00.751Z,71.51
2022-11-16T13:48:36.296Z,71.32
2022-11-16T13:51:08.619Z,71.99
2022-11-16T13:54:43.874Z,72.25
2022-11-16T13:56:51.645Z,72.22
2022-11-16T13:59:26.556Z,72.54
2022-11-16T14:02:03.365Z,72.64
2022-11-16T14:04:58.534Z,72.40
2022-11-16T14:07:32.896Z,72.08
2022-11-16T14:10:01.157Z,72.44
2022-11-16T14:12:51.677Z,71.56
2022-11-16T14:15:32.787Z,71.95
2022-11-16T14:18:03.271Z,72.84
2022-11-16T14:20:48.406Z,73.10
2022-11-16T14:23:24.234Z,73.49
2022-11-16T14:26:08.660Z,72.94
2022-11-16T14:29:06.733Z,72.36
2022-11-16T14:31:52.142Z,73.52
2022-11-16T14:34:40.501Z,73.23
2022-11-16T14:37:31.012Z,74.42
2022-11-16T14:40:18.276Z,75.15
2022-11-16T14:43:15.341Z,75.69
2022-11-16T14:45:39.235Z,75.96
2022-11-16T14:48:16.052Z,76.23
2022-11-16T14:51:09.899Z,77.21
2022-11-16T14:53:41.716Z,76.88
2022-11-16T14:56:11.968Z,77.63
2022-11-16T14:58:39.747Z,78.30
2022-11-16T15:01:12.977Z,78.19
2022-11-16T15:03:56.111Z,78.54
2022-11-16T15:06:25.885Z,78.79
2022-11-16T15:08:59.192Z,79.48
2022-11-16T15:11:52.286Z,80.31
2022-11-16T15:14:41.332Z,80.69
2022-11-16T15:17:09.679Z,80.98
2022-11-16T15:19:36.650Z,81.52
2022-11-16T15:22:04.288Z,81.77
2022-11-16T15:24:35.018Z,80.60
2022-11-16T15:27:38.911Z,79.60
2022-11-16T15:30:20.333Z,79.41
2022-11-16T15:32:50.348Z,79.95
2022-11-16T15:35:24.740Z,80.03
2022-11-16T15:38:01.939Z,79.76
2022-11-16T15:40:30.477Z,79.21
2022-11-16T15:43:04.076Z,79.38
2022-11-16T15:45:32.996Z,78.89
2022-11-16T15:48:03.321Z,79.18
2022-11-16T15:50:30.167Z,79.99
2022-11-16T15:52:59.598Z,79.98
2022-11-16T15:55:38.912Z,79.79
2022-11-16T15:58:18.265Z,80.78
2022-11-16T16:00:48.550Z,81.60
2022-11-16T16:03:28.747Z,81.57
2022-11-16T16:05:56.076Z,81.67
2022-11-16T16:08:28.579Z,82.46
2022-11-16T16:11:26.922Z,83.07
2022-11-16T16:14:02.165Z,82.78
2022-11-16T16:16:36.765Z,83.02
2022-11-16T16:19:23.300Z,83.37
2022-11-16T16:21:50.619Z,83.13
2022-11-16T16:24:34.622Z,83.05
2022-11-16T16:27:01.249Z,83.44
2022-11-16T16:29:28.515Z,82.76
2022-11-16T16:31:56.250Z,82.77
2022-11-16T16:34:22.888Z,82.62
2022-11-16T16:36:49.697Z,83.19
2022-11-16T16:39:16.528Z,83.11
2022-11-16T16:41:43.445Z,83.62
2022-11-16T16:44:15.541Z,83.07
2022-11-16T16:46:42.181Z,82.82
2022-11-16T16:49:09.074Z,83.13
2022-11-16T16:51:35.787Z,82.38
2022-11-16T16:54:02.462Z,82.27
2022-11-16T16:56:29.127Z,83.17
2022-11-16T16:58:55.979Z,82.56
2022-11-16T17:01:22.705Z,82.29
2022-11-16T17:03:49.569Z,83.53
2022-11-16T17:06:16.980Z,83.46
2022-11-16T17:08:43.831Z,84.17
2022-11-16T17:11:12.234Z,83.79
2022-11-16T17:13:39.065Z,83.60
2022-11-16T17:16:06.107Z,83.92
2022-11-16T17:18:33.073Z,83.93
2022-11-16T17:21:04.408Z,84.27
2022-11-16T17:23:31.415Z,83.67
2022-11-16T17:25:58.397Z,84.55
2022-11-16T17:28:25.084Z,84.25
2022-11-16T17:30:51.918Z,84.04
2022-11-16T17:33:18.707Z,84.37
2022-11-16T17:35:54.992Z,84.76
2022-11-16T17:38:21.651Z,84.49
2022-11-16T17:40:48.480Z,84.52
2022-11-16T17:43:15.123Z,84.39
2022-11-16T17:45:41.836Z,84.21
2022-11-16T17:48:08.504Z,85.11
2022-11-16T17:50:35.182Z,84.43
2022-11-16T17:53:02.043Z,83.50
2022-11-16T17:55:28.955Z,83.29
2022-11-16T17:57:56.496Z,83.04
2022-11-16T18:00:23.262Z,83.39
2022-11-16T18:02:49.894Z,83.79
2022-11-16T18:05:16.758Z,83.87
2022-11-16T18:07:43.646Z,83.79
2022-11-16T18:10:12.718Z,84.09
2022-11-16T18:12:43.231Z,84.12
2022-11-16T18:17:57.344Z,84.08
2022-11-16T18:20:24.265Z,83.85
2022-11-16T18:22:50.914Z,84.76
2022-11-16T18:25:17.730Z,84.36
2022-11-16T18:27:44.370Z,84.20
2022-11-16T18:30:11.265Z,84.12
2022-11-16T18:32:37.976Z,84.16
2022-11-16T18:35:09.807Z,83.45
2022-11-16T18:37:36.518Z,83.42
2022-11-16T18:40:04.377Z,83.30
2022-11-16T18:42:31.016Z,83.12
2022-11-16T18:44:57.689Z,83.17
2022-11-16T18:47:24.408Z,82.59
2022-11-16T18:49:51.460Z,83.35
2022-11-16T18:52:18.128Z,83.73
2022-11-16T18:54:44.783Z,82.92
2022-11-16T18:57:11.688Z,82.96
2022-11-16T18:59:38.314Z,82.89
2022-11-16T19:02:05.231Z,82.84
2022-11-16T19:04:31.897Z,83.13
2022-11-16T19:06:58.660Z,83.83
2022-11-16T19:09:25.494Z,84.30
2022-11-16T19:11:52.354Z,84.14
2022-11-16T19:14:19.233Z,83.62
2022-11-16T19:16:54.141Z,84.11
2022-11-16T19:19:24.192Z,83.42
2022-11-16T19:21:51.954Z,83.60
2022-11-16T19:24:18.657Z,84.27
2022-11-16T19:26:45.506Z,83.86
2022-11-16T19:29:12.142Z,84.17
2022-11-16T19:31:39.010Z,84.52
2022-11-16T19:34:07.836Z,84.05
2022-11-16T19:36:36.575Z,84.16
2022-11-16T19:39:05.462Z,84.12
2022-11-16T19:41:32.587Z,84.06
2022-11-16T19:44:01.491Z,84.32
2022-11-16T19:46:31.195Z,84.37
2022-11-16T19:48:58.777Z,84.42
2022-11-16T19:51:28.091Z,83.98
2022-11-16T19:53:56.089Z,84.20
2022-11-16T19:56:24.008Z,84.90
2022-11-16T19:58:51.608Z,84.17
2022-11-16T20:01:28.633Z,84.72
2022-11-16T20:03:58.891Z,84.48
2022-11-16T20:06:31.556Z,85.02
2022-11-16T20:09:02.058Z,84.55
2022-11-16T20:11:31.533Z,84.88
2022-11-16T20:13:59.252Z,84.74
2022-11-16T20:16:28.297Z,85.35
2022-11-16T20:18:55.517Z,84.62
2022-11-16T20:21:22.180Z,85.27
2022-11-16T20:23:49.780Z,84.92
2022-11-16T20:26:16.432Z,85.02
2022-11-16T20:28:43.842Z,84.75
2022-11-16T20:31:16.707Z,85.18
2022-11-16T20:33:56.958Z,84.73
2022-11-16T20:36:26.744Z,84.47
2022-11-16T20:38:54.256Z,84.49
2022-11-16T20:41:26.334Z,84.22
2022-11-16T20:43:54.835Z,84.42
2022-11-16T20:46:26.728Z,84.26
2022-11-16T20:48:54.461Z,84.60
2022-11-16T20:51:21.302Z,84.80
2022-11-16T20:53:49.441Z,84.91
2022-11-16T20:56:19.134Z,84.76
2022-11-16T20:58:46.808Z,85.41
2022-11-16T21:01:16.741Z,84.95
2022-11-16T21:03:44.654Z,84.75
2022-11-16T21:06:13.181Z,84.89
2022-11-16T21:08:40.989Z,85.00
2022-11-16T21:11:17.828Z,84.96
2022-11-16T21:14:04.532Z,84.63
2022-11-16T21:16:32.129Z,85.27
2022-11-16T21:19:00.036Z,84.88
2022-11-16T21:21:27.114Z,84.93
2022-11-16T21:23:54.799Z,84.54
2022-11-16T21:26:24.374Z,85.22
2022-11-16T21:28:51.571Z,85.05
2022-11-16T21:31:21.421Z,84.91
2022-11-16T21:33:48.356Z,84.38
2022-11-16T21:36:17.898Z,84.64
2022-11-16T21:38:45.488Z,84.46
2022-11-16T21:41:14.123Z,84.23
2022-11-16T21:43:41.339Z,84.51
2022-11-16T21:46:12.583Z,84.19
2022-11-16T21:48:39.733Z,84.30
2022-11-16T21:51:12.862Z,84.41
2022-11-16T21:53:40.163Z,84.27
2022-11-16T21:56:11.383Z,84.46
2022-11-16T21:58:42.076Z,84.66
2022-11-16T22:01:10.555Z,84.56
2022-11-16T22:03:38.594Z,84.76
2022-11-16T22:06:26.366Z,84.28
2022-11-16T22:08:53.250Z,84.39
2022-11-16T22:11:21.965Z,84.01
2022-11-16T22:13:50.222Z,84.14
2022-11-16T22:16:20.013Z,84.60
2022-11-16T22:18:46.830Z,84.61
2022-11-16T22:21:13.652Z,83.88
2022-11-16T22:23:40.685Z,83.93
2022-11-16T22:26:10.402Z,83.81
2022-11-16T22:28:38.398Z,83.81
2022-11-16T22:31:07.969Z,83.63
2022-11-16T22:33:35.229Z,83.38
2022-11-16T22:36:03.165Z,83.34
2022-11-16T22:38:30.206Z,83.47
2022-11-16T22:40:57.760Z,83.22
2022-11-16T22:43:27.676Z,83.88
2022-11-16T22:45:58.895Z,84.07
2022-11-16T22:48:37.756Z,84.49
2022-11-16T22:51:25.864Z,84.88
2022-11-16T22:53:54.278Z,85.09
2022-11-16T22:56:21.318Z,85.68
2022-11-16T22:58:48.229Z,85.92
2022-11-16T23:01:14.886Z,86.64
2022-11-16T23:03:41.926Z,86.54
2022-11-16T23:06:08.788Z,86.78
2022-11-16T23:08:36.155Z,86.97
2022-11-16T23:11:33.140Z,87.24
2022-11-16T23:14:19.238Z,87.49
2022-11-16T23:16:46.938Z,87.80
2022-11-16T23:19:35.072Z,87.98
2022-11-16T23:22:20.913Z,88.16
2022-11-16T23:25:06.318Z,88.52
2022-11-16T23:27:45.191Z,88.61
2022-11-16T23:30:13.058Z,88.34
2022-11-16T23:32:40.437Z,88.46
2022-11-16T23:35:07.712Z,88.44
2022-11-16T23:37:34.780Z,89.31
2022-11-16T23:40:01.411Z,88.98
2022-11-16T23:42:46.811Z,89.04
2022-11-16T23:45:13.694Z,89.19
2022-11-16T23:47:40.348Z,89.52
2022-11-16T23:50:07.413Z,89.69
2022-11-16T23:52:34.260Z,89.91
2022-11-16T23:55:00.913Z,89.32
2022-11-16T23:57:27.760Z,88.97
2022-11-16T23:59:54.617Z,90.07
